James L. Oberstar — WDC6154 — position and weather

sailwx.info

Track history (hours):
 
Tides and Currents Weather Stations Pressure Air Temp Water Temp Dewpoint Dewpoint Depression Visibility Wind Speed Wind Dir Waves Ship Positions

James L. Oberstar

Owner: Destin Trading Corporation, harahan, LA. More information available from US FCC via Universal Licensing System and Coast Guard Vessel Documentation Center.

Last reported at 2016-Aug-27 14:20 UTC. Time now 2016-Aug-28 06:58 UTC.
Position N 29°50' W 093°58'.

Length 26 m.

Type: Towing. MMSI: 367052120.

Date/timePositionNaut miles runAvg speedWind from/ knotsBaromVisibWave heightAir tempDewpointWater temp
2016-Aug-27 14:20N 29°50' W 093°58'0 0.0
2016-Aug-27 13:31N 29°50' W 093°58'0 0.0
2016-Aug-27 12:32N 29°50' W 093°58'0 0.0
2016-Aug-27 11:25N 29°50' W 093°58'0 0.0
2016-Aug-27 09:31N 29°50' W 093°58'0 0.0
2016-Aug-27 04:31N 29°50' W 093°58'2 0.1
2016-Aug-26 12:33N 29°49' W 093°59'0 0.3
2016-Aug-26 11:33N 29°49' W 093°59'50 3.5
2016-Aug-25 21:29N 29°31' W 094°53'6 6.9
2016-Aug-25 20:33N 29°36' W 094°57'7 6.4
2016-Aug-25 19:32N 29°42' W 095°00'5 5.3
2016-Aug-25 18:31N 29°46' W 095°05'1 1.0
2016-Aug-25 17:05N 29°45' W 095°06'0 0.0
2016-Aug-25 16:25N 29°45' W 095°06'0 0.0
2016-Aug-25 15:33N 29°45' W 095°06'0 0.0
2016-Aug-25 14:31N 29°45' W 095°06'0 0.0
2016-Aug-25 13:32N 29°45' W 095°06'0 0.0
2016-Aug-25 12:33N 29°45' W 095°06'0 0.0
2016-Aug-25 11:33N 29°45' W 095°06'0 0.0
2016-Aug-25 10:33N 29°45' W 095°06'0 0.0
2016-Aug-25 09:33N 29°45' W 095°06'0 0.0
2016-Aug-25 08:33N 29°45' W 095°06'0 0.0
2016-Aug-25 07:33N 29°45' W 095°06'0 0.0
2016-Aug-25 06:33N 29°45' W 095°06'0 0.0
2016-Aug-25 04:27N 29°45' W 095°06'0 0.0
2016-Aug-25 03:14N 29°45' W 095°06'0 0.0
2016-Aug-25 02:28N 29°45' W 095°06'0 0.0
2016-Aug-25 01:32N 29°45' W 095°06'0 0.0
2016-Aug-25 00:28N 29°45' W 095°06'0 0.0
2016-Aug-24 23:31N 29°45' W 095°06'0 0.0
2016-Aug-24 22:33N 29°45' W 095°06'0 0.0
2016-Aug-24 21:33N 29°45' W 095°06'0 0.0
2016-Aug-24 20:28N 29°45' W 095°06'0 0.0
2016-Aug-24 19:31N 29°45' W 095°06'0 0.0
2016-Aug-24 18:33N 29°45' W 095°06'0 0.0
2016-Aug-24 16:26N 29°45' W 095°06'0 0.0
2016-Aug-24 15:33N 29°45' W 095°06'0 0.0
2016-Aug-24 14:33N 29°45' W 095°06'0 0.0
2016-Aug-24 13:33N 29°45' W 095°06'0 0.0
2016-Aug-24 12:33N 29°45' W 095°06'0 0.0
2016-Aug-24 11:33N 29°45' W 095°06'0 0.0
2016-Aug-24 10:34N 29°45' W 095°06'0 0.0
2016-Aug-24 09:33N 29°45' W 095°06'0 0.0
2016-Aug-24 08:33N 29°45' W 095°06'0 0.0
2016-Aug-24 07:33N 29°45' W 095°06'0 0.0
2016-Aug-24 06:33N 29°45' W 095°06'0 0.0
2016-Aug-24 04:33N 29°45' W 095°06'0 0.0
2016-Aug-24 03:33N 29°45' W 095°06'0 0.0
2016-Aug-24 02:33N 29°45' W 095°06'0 0.0
2016-Aug-24 01:33N 29°45' W 095°06'2 0.4
2016-Aug-23 20:31N 29°46' W 095°05'1 0.3
2016-Aug-23 17:32N 29°47' W 095°05'0 0.1
2016-Aug-23 16:31N 29°47' W 095°05'1 0.4
2016-Aug-23 13:29N 29°46' W 095°05'5 5.3
2016-Aug-23 12:33N 29°42' W 095°01'6 6.2
2016-Aug-23 11:33N 29°37' W 094°57'7 7.0
2016-Aug-23 10:32N 29°31' W 094°53'31 3.1
2016-Aug-23 00:31N 29°38' W 094°18'7 5.1
2016-Aug-22 23:05N 29°41' W 094°10'8 5.0
2016-Aug-22 21:32N 29°46' W 094°03'5 0.6
2016-Aug-22 13:30N 29°49' W 093°59'0 0.0
2016-Aug-22 12:32N 29°49' W 093°59'0 0.0
2016-Aug-22 11:31N 29°49' W 093°59'0 0.0
2016-Aug-22 10:33N 29°49' W 093°59'0 0.0
2016-Aug-22 09:30N 29°49' W 093°59'0 0.0
2016-Aug-22 04:13N 29°49' W 093°59'0 0.0
2016-Aug-22 03:26N 29°49' W 093°59'0 0.0
2016-Aug-21 10:33N 29°49' W 093°59'0 0.0
2016-Aug-21 03:33N 29°49' W 093°59'1 0.1
2016-Aug-20 13:29N 29°50' W 093°58'0 0.0
2016-Aug-20 12:22N 29°50' W 093°58'0 0.0
2016-Aug-20 11:33N 29°50' W 093°58'0 0.0
2016-Aug-20 10:29N 29°50' W 093°58'0 0.0
2016-Aug-20 09:28N 29°50' W 093°58'0 0.0
2016-Aug-20 08:29N 29°50' W 093°58'0 0.0
2016-Aug-20 07:33N 29°50' W 093°58'0 0.0
2016-Aug-20 06:31N 29°50' W 093°58'0 0.0
2016-Aug-20 05:33N 29°50' W 093°58'0 0.0
2016-Aug-20 01:17N 29°50' W 093°58'0 0.0
2016-Aug-19 14:31N 29°50' W 093°58'0 0.0
2016-Aug-19 13:32N 29°50' W 093°58'0 0.0
2016-Aug-19 12:33N 29°50' W 093°58'0 0.0
2016-Aug-19 11:27N 29°50' W 093°58'0 0.0
2016-Aug-19 10:33N 29°50' W 093°58'0 0.0
2016-Aug-19 09:11N 29°50' W 093°58'0 0.0
2016-Aug-19 06:27N 29°50' W 093°58'0 0.0
2016-Aug-19 05:33N 29°50' W 093°58'0 0.0
2016-Aug-19 04:30N 29°50' W 093°58'0 0.0
2016-Aug-19 03:33N 29°50' W 093°58'0 0.0
2016-Aug-19 02:26N 29°50' W 093°58'0 0.0
2016-Aug-19 01:12N 29°50' W 093°58'0 0.0
2016-Aug-19 00:33N 29°50' W 093°57'0 0.0
2016-Aug-18 23:21N 29°50' W 093°57'2 0.2
2016-Aug-18 13:33N 29°49' W 093°59'3 1.9
2016-Aug-18 12:09N 29°47' W 094°01'2 4.0
2016-Aug-18 11:33N 29°46' W 094°04'4 3.9
2016-Aug-18 10:25N 29°43' W 094°08'3 3.6
2016-Aug-18 09:33N 29°41' W 094°11'4 4.0
2016-Aug-18 08:31N 29°39' W 094°15'4 3.8
2016-Aug-18 07:30N 29°38' W 094°19'4 3.7
2016-Aug-18 06:30N 29°36' W 094°23'3 2.7
2016-Aug-18 05:31N 29°34' W 094°25'5 2.6
2016-Aug-18 03:33N 29°31' W 094°30'  
Track history (hours):
 
Tides and Currents Weather Stations Pressure Air Temp Water Temp Dewpoint Dewpoint Depression Visibility Wind Speed Wind Dir Waves Ship Positions

James L. Oberstar

Owner: Destin Trading Corporation, harahan, LA. More information available from US FCC via Universal Licensing System and Coast Guard Vessel Documentation Center.

Last reported at 2016-Aug-27 14:20 UTC. Time now 2016-Aug-28 06:58 UTC.
Position N 29°50' W 093°58'.

Length 26 m.

Type: Towing. MMSI: 367052120.

Date/timePositionNaut miles runAvg speedWind from/ knotsBaromVisibWave heightAir tempDewpointWater temp
2016-Aug-27 14:20N 29°50' W 093°58'0 0.0
2016-Aug-27 13:31N 29°50' W 093°58'0 0.0
2016-Aug-27 12:32N 29°50' W 093°58'0 0.0
2016-Aug-27 11:25N 29°50' W 093°58'0 0.0
2016-Aug-27 09:31N 29°50' W 093°58'0 0.0
2016-Aug-27 04:31N 29°50' W 093°58'2 0.1
2016-Aug-26 12:33N 29°49' W 093°59'0 0.3
2016-Aug-26 11:33N 29°49' W 093°59'50 3.5
2016-Aug-25 21:29N 29°31' W 094°53'6 6.9
2016-Aug-25 20:33N 29°36' W 094°57'7 6.4
2016-Aug-25 19:32N 29°42' W 095°00'5 5.3
2016-Aug-25 18:31N 29°46' W 095°05'1 1.0
2016-Aug-25 17:05N 29°45' W 095°06'0 0.0
2016-Aug-25 16:25N 29°45' W 095°06'0 0.0
2016-Aug-25 15:33N 29°45' W 095°06'0 0.0
2016-Aug-25 14:31N 29°45' W 095°06'0 0.0
2016-Aug-25 13:32N 29°45' W 095°06'0 0.0
2016-Aug-25 12:33N 29°45' W 095°06'0 0.0
2016-Aug-25 11:33N 29°45' W 095°06'0 0.0
2016-Aug-25 10:33N 29°45' W 095°06'0 0.0
2016-Aug-25 09:33N 29°45' W 095°06'0 0.0
2016-Aug-25 08:33N 29°45' W 095°06'0 0.0
2016-Aug-25 07:33N 29°45' W 095°06'0 0.0
2016-Aug-25 06:33N 29°45' W 095°06'0 0.0
2016-Aug-25 04:27N 29°45' W 095°06'0 0.0
2016-Aug-25 03:14N 29°45' W 095°06'0 0.0
2016-Aug-25 02:28N 29°45' W 095°06'0 0.0
2016-Aug-25 01:32N 29°45' W 095°06'0 0.0
2016-Aug-25 00:28N 29°45' W 095°06'0 0.0
2016-Aug-24 23:31N 29°45' W 095°06'0 0.0
2016-Aug-24 22:33N 29°45' W 095°06'0 0.0
2016-Aug-24 21:33N 29°45' W 095°06'0 0.0
2016-Aug-24 20:28N 29°45' W 095°06'0 0.0
2016-Aug-24 19:31N 29°45' W 095°06'0 0.0
2016-Aug-24 18:33N 29°45' W 095°06'0 0.0
2016-Aug-24 16:26N 29°45' W 095°06'0 0.0
2016-Aug-24 15:33N 29°45' W 095°06'0 0.0
2016-Aug-24 14:33N 29°45' W 095°06'0 0.0
2016-Aug-24 13:33N 29°45' W 095°06'0 0.0
2016-Aug-24 12:33N 29°45' W 095°06'0 0.0
2016-Aug-24 11:33N 29°45' W 095°06'0 0.0
2016-Aug-24 10:34N 29°45' W 095°06'0 0.0
2016-Aug-24 09:33N 29°45' W 095°06'0 0.0
2016-Aug-24 08:33N 29°45' W 095°06'0 0.0
2016-Aug-24 07:33N 29°45' W 095°06'0 0.0
2016-Aug-24 06:33N 29°45' W 095°06'0 0.0
2016-Aug-24 04:33N 29°45' W 095°06'0 0.0
2016-Aug-24 03:33N 29°45' W 095°06'0 0.0
2016-Aug-24 02:33N 29°45' W 095°06'0 0.0
2016-Aug-24 01:33N 29°45' W 095°06'2 0.4
2016-Aug-23 20:31N 29°46' W 095°05'1 0.3
2016-Aug-23 17:32N 29°47' W 095°05'0 0.1
2016-Aug-23 16:31N 29°47' W 095°05'1 0.4
2016-Aug-23 13:29N 29°46' W 095°05'5 5.3
2016-Aug-23 12:33N 29°42' W 095°01'6 6.2
2016-Aug-23 11:33N 29°37' W 094°57'7 7.0
2016-Aug-23 10:32N 29°31' W 094°53'31 3.1
2016-Aug-23 00:31N 29°38' W 094°18'7 5.1
2016-Aug-22 23:05N 29°41' W 094°10'8 5.0
2016-Aug-22 21:32N 29°46' W 094°03'5 0.6
2016-Aug-22 13:30N 29°49' W 093°59'0 0.0
2016-Aug-22 12:32N 29°49' W 093°59'0 0.0
2016-Aug-22 11:31N 29°49' W 093°59'0 0.0
2016-Aug-22 10:33N 29°49' W 093°59'0 0.0
2016-Aug-22 09:30N 29°49' W 093°59'0 0.0
2016-Aug-22 04:13N 29°49' W 093°59'0 0.0
2016-Aug-22 03:26N 29°49' W 093°59'0 0.0
2016-Aug-21 10:33N 29°49' W 093°59'0 0.0
2016-Aug-21 03:33N 29°49' W 093°59'1 0.1
2016-Aug-20 13:29N 29°50' W 093°58'0 0.0
2016-Aug-20 12:22N 29°50' W 093°58'0 0.0
2016-Aug-20 11:33N 29°50' W 093°58'0 0.0
2016-Aug-20 10:29N 29°50' W 093°58'0 0.0
2016-Aug-20 09:28N 29°50' W 093°58'0 0.0
2016-Aug-20 08:29N 29°50' W 093°58'0 0.0
2016-Aug-20 07:33N 29°50' W 093°58'0 0.0
2016-Aug-20 06:31N 29°50' W 093°58'0 0.0
2016-Aug-20 05:33N 29°50' W 093°58'0 0.0
2016-Aug-20 01:17N 29°50' W 093°58'0 0.0
2016-Aug-19 14:31N 29°50' W 093°58'0 0.0
2016-Aug-19 13:32N 29°50' W 093°58'0 0.0
2016-Aug-19 12:33N 29°50' W 093°58'0 0.0
2016-Aug-19 11:27N 29°50' W 093°58'0 0.0
2016-Aug-19 10:33N 29°50' W 093°58'0 0.0
2016-Aug-19 09:11N 29°50' W 093°58'0 0.0
2016-Aug-19 06:27N 29°50' W 093°58'0 0.0
2016-Aug-19 05:33N 29°50' W 093°58'0 0.0
2016-Aug-19 04:30N 29°50' W 093°58'0 0.0
2016-Aug-19 03:33N 29°50' W 093°58'0 0.0
2016-Aug-19 02:26N 29°50' W 093°58'0 0.0
2016-Aug-19 01:12N 29°50' W 093°58'0 0.0
2016-Aug-19 00:33N 29°50' W 093°57'0 0.0
2016-Aug-18 23:21N 29°50' W 093°57'2 0.2
2016-Aug-18 13:33N 29°49' W 093°59'3 1.9
2016-Aug-18 12:09N 29°47' W 094°01'2 4.0
2016-Aug-18 11:33N 29°46' W 094°04'4 3.9
2016-Aug-18 10:25N 29°43' W 094°08'3 3.6
2016-Aug-18 09:33N 29°41' W 094°11'4 4.0
2016-Aug-18 08:31N 29°39' W 094°15'4 3.8
2016-Aug-18 07:30N 29°38' W 094°19'4 3.7
2016-Aug-18 06:30N 29°36' W 094°23'3 2.7
2016-Aug-18 05:31N 29°34' W 094°25'5 2.6
2016-Aug-18 03:33N 29°31' W 094°30'  

Dump ship's entire track history